createdAt,value
2022-10-24T00:04:41.236Z,1001.6
2022-10-24T00:10:11.696Z,1001.5
2022-10-24T00:15:10.078Z,1001.5
2022-10-24T00:20:20.421Z,1001.4
2022-10-24T00:25:06.774Z,1001.2
2022-10-24T00:29:59.157Z,1001.4
2022-10-24T00:35:15.533Z,1001.4
2022-10-24T00:41:38.475Z,1001.3
2022-10-24T00:48:20.871Z,1001.3
2022-10-24T00:53:03.119Z,1001.2
2022-10-24T00:56:26.296Z,1001.0
2022-10-24T01:01:33.747Z,1001.0
2022-10-24T01:06:40.114Z,1000.9
2022-10-24T01:11:46.457Z,1001.0
2022-10-24T01:16:42.845Z,1000.8
2022-10-24T01:21:59.279Z,1000.7
2022-10-24T01:27:33.693Z,1000.7
2022-10-24T01:32:02.014Z,1000.6
2022-10-24T01:37:08.411Z,1000.6
2022-10-24T01:42:24.804Z,1000.5
2022-10-24T01:47:31.185Z,1000.5
2022-10-24T01:52:57.744Z,1000.5
2022-10-24T01:57:44.071Z,1000.4
2022-10-24T02:02:50.464Z,1000.3
2022-10-24T02:07:56.838Z,1000.3
2022-10-24T02:13:03.252Z,1000.2
2022-10-24T02:18:09.611Z,1000.2
2022-10-24T02:23:05.981Z,1000.1
2022-10-24T02:28:22.509Z,1000.0
2022-10-24T02:34:17.946Z,1000.0
2022-10-24T02:40:10.570Z,999.9
2022-10-24T02:45:17.972Z,999.8
2022-10-24T02:51:02.430Z,999.9
2022-10-24T02:56:09.878Z,999.9
2022-10-24T03:01:16.394Z,999.8
2022-10-24T03:06:22.666Z,999.9
2022-10-24T03:11:19.078Z,999.8
2022-10-24T03:16:55.691Z,999.8
2022-10-24T03:21:42.014Z,999.8
2022-10-24T03:26:38.380Z,999.8
2022-10-24T03:31:54.900Z,999.9
2022-10-24T03:37:15.299Z,999.8
2022-10-24T03:42:11.647Z,999.9
2022-10-24T03:47:18.058Z,999.9
2022-10-24T03:52:20.450Z,999.9
2022-10-24T03:57:30.812Z,999.9
2022-10-24T04:02:33.316Z,999.8
2022-10-24T04:07:39.819Z,999.8
2022-10-24T04:12:46.181Z,999.9
2022-10-24T04:17:52.670Z,1000.0
2022-10-24T04:22:49.079Z,1000.0
2022-10-24T04:27:55.548Z,999.9
2022-10-24T04:33:12.144Z,1000.0
2022-10-24T04:38:08.534Z,1000.0
2022-10-24T04:43:24.924Z,1000.0
2022-10-24T04:48:21.292Z,1000.1
2022-10-24T04:53:27.703Z,999.9
2022-10-24T04:59:08.129Z,999.9
2022-10-24T05:04:14.519Z,999.9
2022-10-24T05:08:56.906Z,999.8
2022-10-24T05:19:36.932Z,1000.1
2022-10-24T05:24:27.290Z,1000.0
2022-10-24T05:30:18.764Z,1000.1
2022-10-24T05:35:50.183Z,1000.0
2022-10-24T05:40:32.556Z,1000.2
2022-10-24T05:45:39.067Z,1000.0
2022-10-24T05:50:48.998Z,1000.2
2022-10-24T05:55:55.409Z,1000.1
2022-10-24T06:01:05.516Z,1000.2
2022-10-24T06:06:35.874Z,1000.2
2022-10-24T06:11:08.269Z,1000.3
2022-10-24T06:16:14.548Z,1000.3
2022-10-24T06:21:30.985Z,1000.2
2022-10-24T06:26:41.396Z,1000.3
2022-10-24T06:31:47.319Z,1000.3
2022-10-24T06:36:53.740Z,1000.3
2022-10-24T06:43:10.313Z,1000.4
2022-10-24T06:48:17.667Z,1000.4
2022-10-24T06:53:24.052Z,1000.4
2022-10-24T06:58:20.436Z,1000.4
2022-10-24T07:03:36.806Z,1000.5
2022-10-24T07:08:43.198Z,1000.5
2022-10-24T07:13:49.649Z,1000.6
2022-10-24T07:19:00.012Z,1000.6
2022-10-24T07:24:06.390Z,1000.6
2022-10-24T07:29:08.940Z,1000.6
2022-10-24T07:34:15.408Z,1000.6
2022-10-24T07:39:21.893Z,1000.5
2022-10-24T07:44:18.291Z,1000.5
2022-10-24T07:49:34.656Z,1000.3
2022-10-24T07:55:05.084Z,1000.3
2022-10-24T07:59:47.435Z,1000.3
2022-10-24T08:04:53.809Z,1000.2
2022-10-24T08:10:00.165Z,1000.1
2022-10-24T08:15:06.589Z,1000.1
2022-10-24T08:20:12.942Z,1000.0
2022-10-24T08:25:19.332Z,1000.1
2022-10-24T08:30:26.221Z,1000.2
2022-10-24T08:35:32.572Z,1000.2
2022-10-24T08:40:42.964Z,1000.3
2022-10-24T08:45:45.352Z,1000.6
2022-10-24T08:52:07.415Z,1000.6
2022-10-24T08:56:05.683Z,1000.6
2022-10-24T09:01:09.794Z,1000.7
2022-10-24T09:06:16.029Z,1000.7
2022-10-24T09:11:22.418Z,1000.6
2022-10-24T09:16:28.820Z,1000.7
2022-10-24T09:21:56.798Z,1000.7
2022-10-24T09:26:43.213Z,1000.7
2022-10-24T09:31:49.638Z,1000.9
2022-10-24T09:36:54.999Z,1000.9
2022-10-24T09:42:02.375Z,1001.1
2022-10-24T09:52:14.164Z,1001.1
2022-10-24T09:57:26.951Z,1001.1
2022-10-24T10:02:27.930Z,1001.1
2022-10-24T10:07:34.320Z,1001.1
2022-10-24T10:12:40.697Z,1001.1
2022-10-24T10:17:47.289Z,1001.3
2022-10-24T10:22:53.482Z,1001.3
2022-10-24T10:28:03.130Z,1001.3
2022-10-24T10:33:07.837Z,1001.3
2022-10-24T10:38:18.114Z,1000.9
2022-10-24T10:43:28.482Z,1000.8
2022-10-24T10:48:30.859Z,1000.9
2022-10-24T10:53:27.229Z,1001.2
2022-10-24T10:58:43.606Z,1001.5
2022-10-24T11:03:50.035Z,1001.8
2022-10-24T11:09:22.062Z,1001.6
2022-10-24T11:14:04.514Z,1001.6
2022-10-24T11:19:11.104Z,1001.3
2022-10-24T11:24:09.853Z,1001.4
2022-10-24T11:29:27.984Z,1001.7
2022-10-24T11:34:29.254Z,1001.6
2022-10-24T11:40:13.790Z,1001.2
2022-10-24T11:45:21.206Z,1000.9
2022-10-24T11:50:26.530Z,1000.8
2022-10-24T11:55:37.915Z,1000.9
2022-10-24T12:00:40.482Z,1000.3
2022-10-24T12:05:46.833Z,1001.2
2022-10-24T12:11:17.258Z,1000.8
2022-10-24T12:16:03.671Z,1001.6
2022-10-24T12:20:55.972Z,1001.4
2022-10-24T12:26:16.388Z,1001.4
2022-10-24T12:31:22.259Z,1001.6
2022-10-24T12:36:25.143Z,1001.5
2022-10-24T12:41:31.522Z,1001.7
2022-10-24T12:46:41.932Z,1001.7
2022-10-24T12:51:44.293Z,1001.8
2022-10-24T12:56:50.710Z,1001.9
2022-10-24T13:02:01.270Z,1002.0
2022-10-24T13:07:03.486Z,1002.2
2022-10-24T13:13:21.999Z,1002.1
2022-10-24T13:17:06.254Z,1002.0
2022-10-24T13:22:22.641Z,1002.0
2022-10-24T13:27:33.031Z,1002.1
2022-10-24T13:32:35.445Z,1002.2
2022-10-24T13:38:07.782Z,1002.3
2022-10-24T13:43:08.299Z,1002.5
2022-10-24T13:47:54.653Z,1004.3
2022-10-24T13:53:05.025Z,1004.2
2022-10-24T13:58:07.524Z,1004.0
2022-10-24T14:03:13.973Z,1002.2
2022-10-24T14:08:20.268Z,1002.4
2022-10-24T14:13:46.734Z,1002.6
2022-10-24T14:19:08.111Z,1002.2
2022-10-24T14:24:14.821Z,1002.1
2022-10-24T14:29:21.202Z,1002.2
2022-10-24T14:34:28.891Z,1002.2
2022-10-24T14:39:24.058Z,1002.3
2022-10-24T14:44:39.452Z,1002.2
2022-10-24T14:49:50.870Z,1002.4
2022-10-24T14:55:17.879Z,1002.5
2022-10-24T15:03:10.153Z,1002.5
2022-10-24T15:05:09.756Z,1002.5
2022-10-24T15:10:50.201Z,1002.5
2022-10-24T15:15:57.612Z,1002.5
2022-10-24T15:22:16.143Z,1002.6
2022-10-24T15:26:10.382Z,1002.7
2022-10-24T15:31:18.317Z,1002.9
2022-10-24T15:36:31.390Z,1002.7
2022-10-24T15:41:32.739Z,1002.8
2022-10-24T15:46:43.086Z,1002.8
2022-10-24T15:51:49.030Z,1002.8
2022-10-24T15:56:51.873Z,1003.0
2022-10-24T16:02:23.830Z,1003.1
2022-10-24T16:07:06.896Z,1003.0
2022-10-24T16:12:37.357Z,1003.1
2022-10-24T16:17:19.739Z,1003.1
2022-10-24T16:22:30.149Z,1003.1
2022-10-24T16:27:32.619Z,1003.1
2022-10-24T16:32:39.030Z,1003.3
2022-10-24T16:37:45.411Z,1003.1
2022-10-24T16:44:08.007Z,1003.2
2022-10-24T16:49:00.332Z,1003.2
2022-10-24T16:54:06.568Z,1003.3
2022-10-24T16:59:15.459Z,1003.4
2022-10-24T17:04:23.351Z,1003.4
2022-10-24T17:09:25.697Z,1003.5
2022-10-24T17:14:22.197Z,1003.6
2022-10-24T17:19:38.639Z,1003.9
2022-10-24T17:24:44.968Z,1004.0
2022-10-24T17:29:54.970Z,1004.1
2022-10-24T17:35:00.366Z,1004.0
2022-10-24T17:40:06.734Z,1004.0
2022-10-24T17:45:14.196Z,1004.1
2022-10-24T17:50:54.696Z,1004.1
2022-10-24T17:56:02.176Z,1004.1
2022-10-24T18:01:08.514Z,1004.3
2022-10-24T18:06:14.828Z,1004.3
2022-10-24T18:12:33.324Z,1004.3
2022-10-24T18:16:29.974Z,1004.3
2022-10-24T18:21:34.009Z,1004.3
2022-10-24T18:26:40.340Z,1004.4
2022-10-24T18:31:46.743Z,1004.4
2022-10-24T18:37:17.179Z,1004.5
2022-10-24T18:41:49.455Z,1004.5
2022-10-24T18:52:12.252Z,1004.6
2022-10-24T18:57:18.709Z,1004.6
2022-10-24T19:02:25.151Z,1004.7
2022-10-24T19:07:31.451Z,1004.7
2022-10-24T19:13:05.932Z,1004.7
2022-10-24T19:17:34.198Z,1004.8
2022-10-24T19:23:13.753Z,1004.9
2022-10-24T19:27:57.103Z,1004.8
2022-10-24T19:33:03.664Z,1004.7
2022-10-24T19:38:10.028Z,1004.7
2022-10-24T19:43:20.429Z,1004.6
2022-10-24T19:48:12.801Z,1004.6
2022-10-24T19:53:48.223Z,1004.7
2022-10-24T19:58:25.543Z,1004.7
2022-10-24T20:04:26.104Z,1004.6
2022-10-24T20:08:38.466Z,1004.6
2022-10-24T20:13:54.979Z,1004.7
2022-10-24T20:18:51.379Z,1004.7
2022-10-24T20:24:06.809Z,1004.8
2022-10-24T20:29:14.174Z,1004.8
2022-10-24T20:34:20.574Z,1004.8
2022-10-24T20:39:27.103Z,1004.8
2022-10-24T20:44:33.459Z,1004.9
2022-10-24T20:49:39.991Z,1004.9
2022-10-24T20:54:46.386Z,1005.0
2022-10-24T20:59:56.752Z,1005.1
2022-10-24T21:04:59.121Z,1005.0
2022-10-24T21:10:05.560Z,1005.1
2022-10-24T21:15:11.909Z,1005.1
2022-10-24T21:20:18.308Z,1005.2
2022-10-24T21:25:28.763Z,1005.3
2022-10-24T21:31:43.222Z,1005.4
2022-10-24T21:35:37.546Z,1005.4
2022-10-24T21:41:18.078Z,1005.4
2022-10-24T21:46:25.420Z,1005.6
2022-10-24T21:51:31.813Z,1005.5
2022-10-24T21:56:38.337Z,1005.6
2022-10-24T22:02:36.787Z,1005.5
2022-10-24T22:06:54.847Z,1005.5
2022-10-24T22:12:01.244Z,1005.6
2022-10-24T22:16:57.713Z,1005.8
2022-10-24T22:22:14.206Z,1005.7
2022-10-24T22:27:24.633Z,1005.8
2022-10-24T22:37:33.335Z,1005.9
2022-10-24T22:42:29.732Z,1006.0
2022-10-24T22:48:00.153Z,1006.0
2022-10-24T22:52:51.626Z,1006.0
2022-10-24T22:57:59.027Z,1006.1
2022-10-24T23:03:05.602Z,1006.1
2022-10-24T23:08:15.995Z,1006.1
2022-10-24T23:13:18.401Z,1006.2
2022-10-24T23:18:24.754Z,1006.3
2022-10-24T23:23:31.141Z,1006.4
2022-10-24T23:28:37.547Z,1006.4
2022-10-24T23:33:33.883Z,1006.4
2022-10-24T23:38:50.411Z,1006.5
2022-10-24T23:43:46.784Z,1006.5
2022-10-24T23:48:53.161Z,1006.6
2022-10-24T23:54:13.568Z,1006.6
2022-10-24T23:59:20.001Z,1006.6
